YMML

Melbourne International Airport

Melbourne, Australia
TAF YMML 261125Z 2612/2718 25006KT 9999 SCT035 FM261400 28006KT 9999 SCT020 BKN030 FM270000 17010KT 9999 BKN035 FM271400 21005KT 9999 FEW010
Issued Valid From Valid To
Apr-26 @ 11:25 UTC
(2 hours ago)
Apr-26 @ 12:00 UTC
(2 hours ago)
Apr-27 @ 18:00 UTC
(-1 days ago)
Apr-26 @ 12:00 to Apr-26 @ 14:00
TAF YMML 261125Z 2612/2718 25006KT 9999 SCT035
Wind Visibility Clouds
250° at 6 knots 10,000+ meters
  • Scattered at 3,500' AGL
From Apr-26 @ 14:00 to Apr-27 @ 00:00
FM261400 28006KT 9999 SCT020 BKN030
Wind Visibility Clouds
280° at 6 knots 10,000+ meters
  • Scattered at 2,000' AGL
  • Broken at 3,000' AGL
From Apr-27 @ 00:00 to Apr-27 @ 14:00
FM270000 17010KT 9999 BKN035
Wind Visibility Clouds
170° at 10 knots 10,000+ meters
  • Broken at 3,500' AGL
From Apr-27 @ 14:00 to Apr-27 @ 18:00
FM271400 21005KT 9999 FEW010
Wind Visibility Clouds
210° at 5 knots 10,000+ meters
  • Few at 1,000' AGL
TAF YMML 261125Z 2612/2718 25006KT 9999 SCT035 FM261400 28006KT 9999 SCT020 BKN030 FM270000 17010KT 9999 BKN035 FM271400 21005KT 9999 FEW010
Issued Apr-26 @ 11:25 UTC
(2 hours ago)
Valid From Apr-26 @ 12:00 UTC
(2 hours ago)
Valid To Apr-27 @ 18:00 UTC
(-1 days ago)
Apr-26 @ 12:00 - Apr-26 @ 14:00
Wind Visibility
250° at 6 knots 10,000+ meters
Clouds
  • Scattered at 3,500' AGL
From Apr-26 @ 14:00 - Apr-27 @ 00:00
Wind Visibility
280° at 6 knots 10,000+ meters
Clouds
  • Scattered at 2,000' AGL
  • Broken at 3,000' AGL
From Apr-27 @ 00:00 - Apr-27 @ 14:00
Wind Visibility
170° at 10 knots 10,000+ meters
Clouds
  • Broken at 3,500' AGL
From Apr-27 @ 14:00 - Apr-27 @ 18:00
Wind Visibility
210° at 5 knots 10,000+ meters
Clouds
  • Few at 1,000' AGL